createdAt,value
2023-05-09T00:01:59.814Z,6.70
2023-05-09T00:04:28.149Z,7.17
2023-05-09T00:06:56.001Z,7.27
2023-05-09T00:09:23.976Z,7.90
2023-05-09T00:11:53.262Z,7.63
2023-05-09T00:14:21.178Z,7.67
2023-05-09T00:16:49.462Z,7.50
2023-05-09T00:19:17.433Z,7.03
2023-05-09T00:21:45.289Z,7.00
2023-05-09T00:24:13.180Z,6.50
2023-05-09T00:26:41.035Z,7.40
2023-05-09T00:29:10.367Z,7.70
2023-05-09T00:31:38.390Z,7.17
2023-05-09T00:34:06.289Z,6.77
2023-05-09T00:36:34.161Z,8.03
2023-05-09T00:39:01.992Z,6.87
2023-05-09T00:41:29.917Z,6.97
2023-05-09T00:43:57.771Z,6.10
2023-05-09T00:46:28.085Z,5.60
2023-05-09T00:48:56.748Z,5.93
2023-05-09T00:51:25.103Z,6.13
2023-05-09T00:53:53.003Z,5.73
2023-05-09T00:56:21.742Z,5.97
2023-05-09T00:58:50.025Z,5.77
2023-05-09T01:01:18.028Z,5.93
2023-05-09T01:03:47.783Z,5.40
2023-05-09T01:06:23.644Z,5.73
2023-05-09T01:08:59.902Z,6.07
2023-05-09T01:11:33.276Z,6.10
2023-05-09T01:14:13.282Z,6.50
2023-05-09T01:16:48.334Z,5.80
2023-05-09T01:19:37.602Z,5.67
2023-05-09T01:22:10.077Z,5.80
2023-05-09T01:24:58.306Z,6.50
2023-05-09T01:27:44.473Z,5.93
2023-05-09T01:30:15.229Z,6.37
2023-05-09T01:32:45.918Z,6.53
2023-05-09T01:35:15.799Z,6.13
2023-05-09T01:37:46.450Z,5.97
2023-05-09T01:40:17.284Z,6.50
2023-05-09T01:42:48.643Z,6.10
2023-05-09T01:45:19.308Z,6.73
2023-05-09T01:47:50.052Z,6.60
2023-05-09T01:50:19.747Z,6.73
2023-05-09T01:52:50.037Z,6.93
2023-05-09T01:55:19.831Z,6.90
2023-05-09T01:57:49.118Z,7.00
2023-05-09T02:00:20.006Z,6.57
2023-05-09T02:02:48.441Z,7.03
2023-05-09T02:05:18.916Z,7.23
2023-05-09T02:07:48.453Z,6.77
2023-05-09T02:10:16.999Z,7.17
2023-05-09T02:12:44.951Z,6.27
2023-05-09T02:15:13.030Z,7.00
2023-05-09T02:17:43.597Z,6.53
2023-05-09T02:20:12.169Z,5.90
2023-05-09T02:22:42.029Z,6.80
2023-05-09T02:25:15.209Z,7.00
2023-05-09T02:27:45.859Z,7.37
2023-05-09T02:30:20.514Z,6.80
2023-05-09T02:32:51.814Z,6.33
2023-05-09T02:35:22.976Z,6.27
2023-05-09T02:37:50.998Z,6.90
2023-05-09T02:40:20.237Z,6.17
2023-05-09T02:42:48.606Z,6.67
2023-05-09T02:45:17.132Z,6.70
2023-05-09T02:47:45.240Z,7.33
2023-05-09T02:50:14.631Z,7.10
2023-05-09T02:52:43.472Z,6.20
2023-05-09T02:55:11.843Z,6.90
2023-05-09T02:57:41.975Z,7.03
2023-05-09T03:00:11.253Z,7.47
2023-05-09T03:02:40.402Z,8.27
2023-05-09T03:05:16.145Z,6.93
2023-05-09T03:07:44.514Z,7.50
2023-05-09T03:10:12.524Z,7.50
2023-05-09T03:12:43.677Z,7.60
2023-05-09T03:15:13.065Z,6.60
2023-05-09T03:17:42.380Z,7.17
2023-05-09T03:20:11.297Z,7.43
2023-05-09T03:22:40.555Z,6.30
2023-05-09T03:25:10.921Z,7.63
2023-05-09T03:27:39.960Z,7.30
2023-05-09T03:30:12.456Z,7.00
2023-05-09T03:32:41.043Z,6.43
2023-05-09T03:35:09.454Z,7.30
2023-05-09T03:37:37.363Z,7.03
2023-05-09T03:40:10.217Z,7.17
2023-05-09T03:42:46.332Z,7.00
2023-05-09T03:45:14.457Z,7.50
2023-05-09T03:47:43.796Z,7.33
2023-05-09T03:50:12.671Z,6.63
2023-05-09T03:52:40.578Z,7.10
2023-05-09T03:55:11.011Z,7.00
2023-05-09T03:57:40.053Z,8.03
2023-05-09T04:00:10.282Z,6.70
2023-05-09T04:02:52.058Z,6.60
2023-05-09T04:05:33.607Z,7.67
2023-05-09T04:08:02.564Z,6.10
2023-05-09T04:10:33.279Z,6.90
2023-05-09T04:13:01.660Z,6.43
2023-05-09T04:15:29.622Z,6.50
2023-05-09T04:17:58.984Z,6.50
2023-05-09T04:20:27.099Z,6.57
2023-05-09T04:22:55.553Z,6.00
2023-05-09T04:25:23.529Z,6.20
2023-05-09T04:27:53.205Z,6.50
2023-05-09T04:30:22.504Z,6.20
2023-05-09T04:32:50.486Z,6.00
2023-05-09T04:35:20.722Z,6.13
2023-05-09T04:37:50.452Z,7.20
2023-05-09T04:40:18.788Z,6.47
2023-05-09T04:43:03.272Z,7.10
2023-05-09T04:45:32.228Z,6.20
2023-05-09T04:48:01.529Z,6.50
2023-05-09T04:50:30.517Z,5.80
2023-05-09T04:52:58.404Z,8.50
2023-05-09T04:55:26.426Z,7.47
2023-05-09T04:57:56.302Z,7.53
2023-05-09T05:00:25.642Z,6.90
2023-05-09T05:02:53.524Z,6.30
2023-05-09T05:05:25.122Z,7.70
2023-05-09T05:07:54.499Z,7.53
2023-05-09T05:10:26.733Z,7.33
2023-05-09T05:13:03.215Z,7.40
2023-05-09T05:15:32.663Z,8.53
2023-05-09T05:18:00.576Z,7.13
2023-05-09T05:20:33.185Z,6.87
2023-05-09T05:23:01.708Z,6.60
2023-05-09T05:25:29.748Z,6.90
2023-05-09T05:27:58.804Z,7.60
2023-05-09T05:30:26.715Z,6.73
2023-05-09T05:32:56.066Z,6.87
2023-05-09T05:35:24.776Z,6.00
2023-05-09T05:37:54.041Z,6.07
2023-05-09T05:40:23.270Z,6.60
2023-05-09T05:42:52.495Z,7.10
2023-05-09T05:45:20.607Z,6.67
2023-05-09T05:47:51.850Z,6.43
2023-05-09T05:50:21.598Z,6.37
2023-05-09T05:52:49.473Z,6.00
2023-05-09T05:55:19.372Z,6.00
2023-05-09T05:57:48.665Z,6.20
2023-05-09T06:00:17.855Z,6.67
2023-05-09T06:02:49.984Z,6.30
2023-05-09T06:05:44.669Z,5.77
2023-05-09T06:08:13.231Z,5.33
2023-05-09T06:10:41.669Z,6.13
2023-05-09T06:13:09.641Z,5.60
2023-05-09T06:15:39.765Z,7.07
2023-05-09T06:18:09.009Z,6.77
2023-05-09T06:20:37.087Z,7.27
2023-05-09T06:23:06.407Z,6.93
2023-05-09T06:25:34.473Z,7.07
2023-05-09T06:28:02.365Z,7.13
2023-05-09T06:30:30.306Z,6.50
2023-05-09T06:32:59.943Z,6.10
2023-05-09T06:35:27.901Z,6.63
2023-05-09T06:37:55.820Z,6.50
2023-05-09T06:40:24.999Z,5.50
2023-05-09T06:42:52.926Z,6.03
2023-05-09T06:45:21.656Z,6.23
2023-05-09T06:47:49.748Z,6.47
2023-05-09T06:50:17.870Z,5.97
2023-05-09T06:52:45.887Z,6.70
2023-05-09T06:55:13.919Z,5.80
2023-05-09T06:57:43.450Z,6.13
2023-05-09T07:00:12.579Z,6.03
2023-05-09T07:02:42.014Z,6.60
2023-05-09T07:05:11.050Z,5.60
2023-05-09T07:07:39.156Z,5.10
2023-05-09T07:10:11.740Z,5.00
2023-05-09T07:12:40.410Z,5.30
2023-05-09T07:15:11.351Z,5.10
2023-05-09T07:17:39.510Z,5.03
2023-05-09T07:20:08.488Z,5.40
2023-05-09T07:22:37.418Z,5.33
2023-05-09T07:25:08.451Z,5.00
2023-05-09T07:27:36.698Z,5.30
2023-05-09T07:30:04.790Z,5.10
2023-05-09T07:32:34.331Z,5.10
2023-05-09T07:35:03.074Z,4.77
2023-05-09T07:37:32.370Z,4.63
2023-05-09T07:40:00.461Z,5.10
2023-05-09T07:42:28.342Z,4.53
2023-05-09T07:44:56.351Z,4.90
2023-05-09T07:47:24.617Z,4.30
2023-05-09T07:49:53.943Z,4.73
2023-05-09T07:52:21.778Z,5.10
2023-05-09T07:54:49.827Z,5.70
2023-05-09T07:57:17.903Z,5.20
2023-05-09T07:59:45.800Z,5.20
2023-05-09T08:02:13.727Z,5.07
2023-05-09T08:04:42.063Z,4.87
2023-05-09T08:07:11.809Z,5.43
2023-05-09T08:09:39.833Z,4.97
2023-05-09T08:12:08.325Z,5.00
2023-05-09T08:14:36.227Z,4.97
2023-05-09T08:17:04.193Z,4.67
2023-05-09T08:19:32.075Z,4.57
2023-05-09T08:22:00.652Z,4.20
2023-05-09T08:24:29.976Z,4.60
2023-05-09T08:26:58.002Z,4.67
2023-05-09T08:29:25.982Z,4.33
2023-05-09T08:31:53.925Z,5.10
2023-05-09T08:34:22.093Z,4.50
2023-05-09T08:36:50.019Z,5.27
2023-05-09T08:39:17.872Z,4.97
2023-05-09T08:41:47.437Z,4.90
2023-05-09T08:44:15.621Z,5.03
2023-05-09T08:46:45.294Z,4.40
2023-05-09T08:49:13.567Z,5.00
2023-05-09T08:51:41.805Z,4.53
2023-05-09T08:54:09.970Z,4.03
2023-05-09T08:56:38.110Z,4.40
2023-05-09T08:59:07.693Z,4.50
2023-05-09T09:01:36.696Z,4.40
2023-05-09T09:04:07.280Z,3.80
2023-05-09T09:06:36.429Z,4.30
2023-05-09T09:09:07.071Z,3.37
2023-05-09T09:11:36.023Z,4.20
2023-05-09T09:14:12.808Z,4.07
2023-05-09T09:16:43.902Z,4.57
2023-05-09T09:19:13.940Z,3.83
2023-05-09T09:21:43.984Z,4.20
2023-05-09T09:24:14.452Z,4.10
2023-05-09T09:26:48.313Z,3.60
2023-05-09T09:29:18.905Z,3.93
2023-05-09T09:31:48.187Z,4.00
2023-05-09T09:34:24.153Z,4.40
2023-05-09T09:36:52.243Z,3.70
2023-05-09T09:39:21.665Z,3.93
2023-05-09T09:41:49.805Z,4.47
2023-05-09T09:44:20.184Z,3.50
2023-05-09T09:46:50.525Z,4.50
2023-05-09T09:49:20.192Z,4.60
2023-05-09T09:51:52.032Z,3.90
2023-05-09T09:54:20.315Z,4.00
2023-05-09T09:56:49.641Z,3.57
2023-05-09T09:59:21.213Z,3.50
2023-05-09T10:01:56.821Z,4.00
2023-05-09T10:04:25.964Z,4.10
2023-05-09T10:06:55.259Z,3.77
2023-05-09T10:09:23.944Z,4.10
2023-05-09T10:11:53.596Z,3.50
2023-05-09T10:14:24.270Z,3.77
2023-05-09T10:16:53.577Z,3.77
2023-05-09T10:19:23.008Z,3.80
2023-05-09T10:21:56.239Z,3.90
2023-05-09T10:24:29.546Z,3.83
2023-05-09T10:27:04.169Z,4.00
2023-05-09T10:29:37.478Z,3.60
2023-05-09T10:32:14.131Z,3.60
2023-05-09T10:34:45.117Z,3.43
2023-05-09T10:37:13.737Z,3.43
2023-05-09T10:39:42.845Z,3.37
2023-05-09T10:42:11.062Z,3.27
2023-05-09T10:44:40.740Z,3.47
2023-05-09T10:47:09.060Z,4.20
2023-05-09T10:49:37.547Z,3.50
2023-05-09T10:52:05.963Z,3.23
2023-05-09T10:54:34.265Z,3.57
2023-05-09T10:57:02.192Z,3.17
2023-05-09T10:59:37.857Z,3.30
2023-05-09T11:02:12.365Z,3.30
2023-05-09T11:04:41.063Z,3.80
2023-05-09T11:07:25.190Z,3.50
2023-05-09T11:09:53.679Z,3.60
2023-05-09T11:12:24.807Z,3.50
2023-05-09T11:14:53.847Z,3.33
2023-05-09T11:17:32.727Z,3.20
2023-05-09T11:20:05.396Z,3.37
2023-05-09T11:22:41.319Z,3.83
2023-05-09T11:25:10.761Z,3.10
2023-05-09T11:27:42.452Z,4.10
2023-05-09T11:30:12.496Z,3.33
2023-05-09T11:32:47.550Z,3.47
2023-05-09T11:35:17.762Z,2.83
2023-05-09T11:37:48.199Z,2.80
2023-05-09T11:40:18.383Z,3.50
2023-05-09T11:42:47.929Z,2.70
2023-05-09T11:45:16.284Z,3.00
2023-05-09T11:47:47.293Z,3.00
2023-05-09T11:50:17.171Z,2.73
2023-05-09T11:52:45.222Z,2.70
2023-05-09T11:55:15.563Z,2.93
2023-05-09T11:57:46.417Z,2.90
2023-05-09T12:00:17.017Z,3.10
2023-05-09T12:02:47.160Z,4.20
2023-05-09T12:05:17.020Z,6.97
2023-05-09T12:07:46.442Z,7.20
2023-05-09T12:10:16.555Z,4.70
2023-05-09T12:12:46.409Z,3.57
2023-05-09T12:15:15.390Z,3.03
2023-05-09T12:17:44.403Z,2.87
2023-05-09T12:20:14.567Z,3.00
2023-05-09T12:22:44.415Z,3.37
2023-05-09T12:25:12.735Z,3.20
2023-05-09T12:27:41.752Z,2.90
2023-05-09T12:30:11.979Z,3.37
2023-05-09T12:32:40.553Z,2.97
2023-05-09T12:35:10.778Z,3.40
2023-05-09T12:37:40.315Z,3.47
2023-05-09T12:40:13.037Z,9.77
2023-05-09T12:42:44.995Z,9.63
2023-05-09T12:45:13.669Z,12.30
2023-05-09T12:47:42.486Z,6.20
2023-05-09T12:50:13.234Z,3.20
2023-05-09T12:53:02.200Z,2.73
2023-05-09T12:55:39.544Z,2.40
2023-05-09T12:58:07.860Z,3.13
2023-05-09T13:00:45.405Z,2.80
2023-05-09T13:03:25.337Z,3.40
2023-05-09T13:05:59.054Z,3.60
2023-05-09T13:08:29.090Z,3.30
2023-05-09T13:11:07.983Z,3.50
2023-05-09T13:13:43.085Z,3.30
2023-05-09T13:16:12.163Z,4.20
2023-05-09T13:18:42.086Z,3.47
2023-05-09T13:21:10.044Z,3.73
2023-05-09T13:23:39.319Z,3.60
2023-05-09T13:26:07.300Z,2.80
2023-05-09T13:28:35.257Z,3.07
2023-05-09T13:31:04.041Z,3.13
2023-05-09T13:33:32.110Z,2.87
2023-05-09T13:36:00.190Z,3.27
2023-05-09T13:38:30.839Z,3.00
2023-05-09T13:41:00.401Z,3.10
2023-05-09T13:43:28.353Z,2.60
2023-05-09T13:45:56.270Z,2.80
2023-05-09T13:48:24.176Z,2.70
2023-05-09T13:50:52.312Z,2.43
2023-05-09T13:53:20.609Z,2.50
2023-05-09T13:55:48.480Z,3.73
2023-05-09T13:58:17.782Z,3.30
2023-05-09T14:00:45.919Z,2.57
2023-05-09T14:03:13.905Z,2.60
2023-05-09T14:05:42.299Z,2.87
2023-05-09T14:08:11.076Z,3.10
2023-05-09T14:10:39.019Z,3.33
2023-05-09T14:13:08.306Z,2.77
2023-05-09T14:15:37.814Z,3.23
2023-05-09T14:18:05.958Z,3.23
2023-05-09T14:20:36.810Z,3.40
2023-05-09T14:23:04.811Z,3.90
2023-05-09T14:25:32.697Z,3.70
2023-05-09T14:28:00.620Z,4.10
2023-05-09T14:30:28.498Z,20.00
2023-05-09T14:32:57.761Z,15.97
2023-05-09T14:35:25.709Z,12.63
2023-05-09T14:37:53.693Z,4.63
2023-05-09T14:40:21.866Z,4.80
2023-05-09T14:42:49.807Z,4.37
2023-05-09T14:45:17.857Z,4.50
2023-05-09T14:47:48.020Z,3.80
2023-05-09T14:50:17.574Z,3.03
2023-05-09T14:52:45.664Z,2.87
2023-05-09T14:55:13.586Z,3.90
2023-05-09T14:57:41.557Z,2.70
2023-05-09T15:00:20.432Z,3.47
2023-05-09T15:02:48.984Z,2.50
2023-05-09T15:05:18.409Z,3.00
2023-05-09T15:07:46.377Z,3.53
2023-05-09T15:10:14.849Z,2.30
2023-05-09T15:12:43.013Z,3.03
2023-05-09T15:15:16.150Z,2.53
2023-05-09T15:17:44.230Z,3.20
2023-05-09T15:20:15.187Z,11.70
2023-05-09T15:22:45.276Z,7.80
2023-05-09T15:25:13.157Z,5.70
2023-05-09T15:27:41.264Z,8.00
2023-05-09T15:30:10.149Z,5.03
2023-05-09T15:32:39.822Z,4.13
2023-05-09T15:35:08.793Z,4.33
2023-05-09T15:37:36.856Z,18.03
2023-05-09T15:40:07.836Z,7.53
2023-05-09T15:42:36.018Z,17.17
2023-05-09T15:45:04.113Z,11.80
2023-05-09T15:47:32.184Z,16.77
2023-05-09T15:50:00.210Z,16.50
2023-05-09T15:52:28.147Z,8.20
2023-05-09T15:54:56.524Z,8.03
2023-05-09T15:57:25.975Z,5.00
2023-05-09T15:59:57.289Z,3.80
2023-05-09T16:02:25.307Z,4.13
2023-05-09T16:04:53.270Z,2.90
2023-05-09T16:07:21.153Z,2.93
2023-05-09T16:09:49.021Z,2.83
2023-05-09T16:12:16.924Z,3.60
2023-05-09T16:14:46.168Z,4.03
2023-05-09T16:17:14.084Z,4.33
2023-05-09T16:19:42.351Z,4.17
2023-05-09T16:22:10.339Z,5.30
2023-05-09T16:24:38.614Z,5.20
2023-05-09T16:27:06.501Z,7.60
2023-05-09T16:29:34.400Z,8.87
2023-05-09T16:32:04.297Z,6.90
2023-05-09T16:34:32.845Z,7.00
2023-05-09T16:37:00.970Z,8.70
2023-05-09T16:39:28.953Z,8.03
2023-05-09T16:41:57.078Z,7.87
2023-05-09T16:44:26.358Z,7.70
2023-05-09T16:46:54.346Z,7.47
2023-05-09T16:49:23.670Z,8.27
2023-05-09T16:51:51.516Z,6.60
2023-05-09T16:54:19.419Z,6.40
2023-05-09T16:56:48.010Z,5.80
2023-05-09T16:59:17.299Z,5.20
2023-05-09T17:01:46.397Z,24.00
2023-05-09T17:04:14.567Z,16.10
2023-05-09T17:06:43.823Z,7.73
2023-05-09T17:09:11.741Z,5.93
2023-05-09T17:11:39.647Z,8.43
2023-05-09T17:14:07.600Z,7.50
2023-05-09T17:16:37.872Z,9.87
2023-05-09T17:19:06.232Z,6.37
2023-05-09T17:21:34.182Z,5.50
2023-05-09T17:24:03.501Z,5.93
2023-05-09T17:26:31.744Z,5.20
2023-05-09T17:28:59.704Z,5.00
2023-05-09T17:31:27.809Z,4.57
2023-05-09T17:33:55.962Z,4.60
2023-05-09T17:36:23.912Z,4.20
2023-05-09T17:38:52.318Z,3.70
2023-05-09T17:41:22.175Z,4.07
2023-05-09T17:43:51.887Z,49.20
2023-05-09T17:46:19.837Z,34.30
2023-05-09T17:48:48.211Z,15.10
2023-05-09T17:51:16.882Z,8.93
2023-05-09T17:53:44.917Z,6.23
2023-05-09T17:56:12.791Z,5.37
2023-05-09T17:58:42.115Z,6.20
2023-05-09T18:01:10.198Z,5.47
2023-05-09T18:03:39.134Z,4.90
2023-05-09T18:06:07.155Z,5.97
2023-05-09T18:08:35.201Z,5.00
2023-05-09T18:11:03.177Z,4.60
2023-05-09T18:13:31.565Z,5.33
2023-05-09T18:16:01.583Z,5.07
2023-05-09T18:18:32.269Z,4.80
2023-05-09T18:21:00.436Z,17.00
2023-05-09T18:23:28.434Z,11.60
2023-05-09T18:25:56.676Z,10.20
2023-05-09T18:28:25.589Z,7.53
2023-05-09T18:30:54.637Z,5.40
2023-05-09T18:33:25.733Z,4.00
2023-05-09T18:35:53.984Z,4.40
2023-05-09T18:38:22.539Z,3.80
2023-05-09T18:40:51.773Z,3.80
2023-05-09T18:43:20.784Z,3.67
2023-05-09T18:45:49.126Z,4.00
2023-05-09T18:48:17.154Z,7.50
2023-05-09T18:50:47.150Z,13.03
2023-05-09T18:53:15.035Z,13.00
2023-05-09T18:55:42.935Z,5.40
2023-05-09T18:58:10.886Z,4.20
2023-05-09T19:00:39.382Z,3.70
2023-05-09T19:03:07.629Z,3.17
2023-05-09T19:05:35.656Z,3.10
2023-05-09T19:08:05.202Z,3.50
2023-05-09T19:10:33.705Z,3.10
2023-05-09T19:13:01.606Z,3.03
2023-05-09T19:15:30.354Z,3.40
2023-05-09T19:17:58.464Z,3.57
2023-05-09T19:20:26.654Z,3.47
2023-05-09T19:22:54.599Z,3.10
2023-05-09T19:25:24.034Z,3.80
2023-05-09T19:27:52.586Z,3.70
2023-05-09T19:30:21.192Z,4.10
2023-05-09T19:32:49.366Z,3.90
2023-05-09T19:35:17.362Z,2.93
2023-05-09T19:37:45.352Z,3.00
2023-05-09T19:40:13.474Z,3.60
2023-05-09T19:42:42.889Z,3.30
2023-05-09T19:45:11.639Z,3.50
2023-05-09T19:47:39.570Z,2.97
2023-05-09T19:50:08.590Z,2.67
2023-05-09T19:52:37.311Z,3.30
2023-05-09T19:55:05.894Z,2.80
2023-05-09T19:57:33.883Z,3.10
2023-05-09T20:00:03.175Z,3.53
2023-05-09T20:02:34.630Z,2.73
2023-05-09T20:05:02.726Z,2.90
2023-05-09T20:07:32.498Z,3.00
2023-05-09T20:10:00.370Z,3.17
2023-05-09T20:12:30.248Z,3.00
2023-05-09T20:14:58.422Z,2.80
2023-05-09T20:17:27.846Z,3.20
2023-05-09T20:19:56.276Z,3.13
2023-05-09T20:22:24.401Z,2.80
2023-05-09T20:24:52.255Z,2.97
2023-05-09T20:27:20.182Z,3.37
2023-05-09T20:29:48.033Z,3.20
2023-05-09T20:32:15.900Z,3.03
2023-05-09T20:34:45.147Z,2.87
2023-05-09T20:37:13.030Z,2.90
2023-05-09T20:39:40.933Z,3.13
2023-05-09T20:42:09.046Z,2.87
2023-05-09T20:44:37.528Z,2.90
2023-05-09T20:47:05.509Z,3.10
2023-05-09T20:49:33.400Z,2.83
2023-05-09T20:52:02.740Z,3.40
2023-05-09T20:54:30.912Z,3.37
2023-05-09T20:56:58.796Z,3.17
2023-05-09T20:59:26.626Z,3.60
2023-05-09T21:01:55.565Z,3.27
2023-05-09T21:04:23.617Z,2.93
2023-05-09T21:06:51.522Z,3.13
2023-05-09T21:09:20.731Z,3.40
2023-05-09T21:11:48.574Z,3.27
2023-05-09T21:14:16.381Z,3.13
2023-05-09T21:16:45.131Z,3.07
2023-05-09T21:19:13.078Z,3.50
2023-05-09T21:21:40.941Z,3.30
2023-05-09T21:24:09.728Z,3.30
2023-05-09T21:26:38.950Z,3.20
2023-05-09T21:29:07.070Z,3.50
2023-05-09T21:31:34.985Z,2.90
2023-05-09T21:34:09.492Z,3.20
2023-05-09T21:36:37.840Z,3.47
2023-05-09T21:39:08.967Z,3.30
2023-05-09T21:41:37.096Z,3.20
2023-05-09T21:44:07.306Z,3.50
2023-05-09T21:46:36.216Z,2.80
2023-05-09T21:49:04.291Z,3.70
2023-05-09T21:51:33.426Z,3.47
2023-05-09T21:54:01.817Z,3.23
2023-05-09T21:56:29.713Z,3.20
2023-05-09T21:58:57.558Z,3.63
2023-05-09T22:01:26.842Z,3.20
2023-05-09T22:03:54.841Z,3.63
2023-05-09T22:06:22.904Z,3.20
2023-05-09T22:08:51.132Z,3.20
2023-05-09T22:11:18.971Z,3.47
2023-05-09T22:13:46.852Z,3.47
2023-05-09T22:16:14.703Z,3.33
2023-05-09T22:18:43.997Z,3.03
2023-05-09T22:21:12.552Z,3.13
2023-05-09T22:23:40.678Z,3.60
2023-05-09T22:26:08.610Z,3.43
2023-05-09T22:28:37.270Z,3.93
2023-05-09T22:31:06.595Z,3.73
2023-05-09T22:33:34.535Z,3.47
2023-05-09T22:36:03.797Z,3.30
2023-05-09T22:38:31.686Z,3.63
2023-05-09T22:40:59.599Z,3.60
2023-05-09T22:43:36.544Z,3.00
2023-05-09T22:46:06.957Z,3.30
2023-05-09T22:48:34.998Z,3.20
2023-05-09T22:51:04.557Z,3.30
2023-05-09T22:53:32.762Z,3.40
2023-05-09T22:56:00.827Z,3.67
2023-05-09T22:58:28.827Z,3.47
2023-05-09T23:00:56.758Z,3.70
2023-05-09T23:03:24.817Z,3.30
2023-05-09T23:05:52.863Z,3.63
2023-05-09T23:08:22.090Z,4.00
2023-05-09T23:10:49.948Z,3.47
2023-05-09T23:13:18.304Z,3.30
2023-05-09T23:15:48.125Z,3.70
2023-05-09T23:18:16.090Z,3.70
2023-05-09T23:20:43.989Z,3.40
2023-05-09T23:23:11.904Z,3.50
2023-05-09T23:25:41.245Z,3.20
2023-05-09T23:28:09.309Z,3.57
2023-05-09T23:30:37.323Z,3.60
2023-05-09T23:33:05.373Z,3.30
2023-05-09T23:35:33.308Z,3.57
2023-05-09T23:38:01.187Z,3.43
2023-05-09T23:40:29.105Z,3.53
2023-05-09T23:42:58.364Z,3.87
2023-05-09T23:45:26.853Z,4.07
2023-05-09T23:47:54.744Z,3.90
2023-05-09T23:50:22.808Z,3.63
2023-05-09T23:52:51.147Z,4.30
2023-05-09T23:55:19.354Z,4.00
2023-05-09T23:57:47.350Z,3.47
